Time;durP1;ratioP1;P1;durP2;ratioP2;P2;SDS_P1;SDS_P2;PMS_P1;PMS_P2;Temp;Humidity;BMP_temperature;BMP_pressure;BME280_temperature;BME280_humidity;BME280_pressure;Samples;Min_cycle;Max_cycle;Signal;HPM_P1;HPM_P2
2023/03/30 00:00:50;;;;;;;11.57;2.43;;;;;;;11.96;95.92;93778.50;5048150;28;20037;-65
2023/03/30 00:03:18;;;;;;;10.65;2.55;;;;;;;12.02;95.37;93783.50;5049174;28;20534;-65
2023/03/30 00:05:45;;;;;;;17.52;3.00;;;;;;;12.06;94.39;93778.69;5049544;28;20390;-65
2023/03/30 00:08:17;;;;;;;12.50;2.17;;;;;;;12.08;95.33;93776.28;5048667;28;20052;-65
2023/03/30 00:10:45;;;;;;;12.70;2.78;;;;;;;12.12;94.83;93776.97;5049502;28;20035;-64
2023/03/30 00:13:12;;;;;;;11.30;2.50;;;;;;;12.19;92.90;93760.28;5048826;28;20041;-65
2023/03/30 00:15:39;;;;;;;13.35;2.40;;;;;;;12.23;92.65;93754.72;5049117;28;20037;-65
2023/03/30 00:18:07;;;;;;;11.60;2.83;;;;;;;12.23;92.32;93744.47;5048307;28;20045;-65
2023/03/30 00:20:36;;;;;;;16.55;2.88;;;;;;;12.26;91.96;93742.84;5048602;28;20037;-66
2023/03/30 00:23:03;;;;;;;10.48;2.50;;;;;;;12.28;91.72;93737.69;5047752;28;20071;-68
2023/03/30 00:25:30;;;;;;;14.07;2.80;;;;;;;12.27;92.04;93725.13;5048686;28;20425;-65
2023/03/30 00:27:56;;;;;;;9.70;2.60;;;;;;;12.25;92.37;93724.78;5049207;28;20033;-65
2023/03/30 00:30:23;;;;;;;13.85;2.88;;;;;;;12.22;92.47;93733.91;5048342;28;20098;-66
2023/03/30 00:32:50;;;;;;;12.23;2.70;;;;;;;12.21;92.42;93724.88;5049011;28;20033;-64
2023/03/30 00:35:18;;;;;;;16.00;2.63;;;;;;;12.25;91.92;93711.03;5053529;28;20044;-66
2023/03/30 00:37:48;;;;;;;16.70;3.50;;;;;;;12.22;92.64;93707.16;5056402;28;20165;-67
2023/03/30 00:40:18;;;;;;;13.30;2.90;;;;;;;12.17;92.96;93711.22;5058059;28;20040;-65
2023/03/30 00:42:45;;;;;;;12.02;2.80;;;;;;;12.13;93.75;93712.50;5039546;28;20041;-64
2023/03/30 00:45:18;;;;;;;13.80;2.83;;;;;;;12.15;93.20;93707.34;5039888;28;20051;-65
2023/03/30 00:47:57;;;;;;;13.90;2.88;;;;;;;12.14;93.16;93705.81;5055302;28;20057;-68
2023/03/30 00:50:34;;;;;;;14.17;3.10;;;;;;;12.16;92.80;93704.16;5060122;28;20068;-65
2023/03/30 00:53:08;;;;;;;16.98;2.47;;;;;;;12.14;93.10;93701.06;5061195;28;20045;-66
2023/03/30 00:55:38;;;;;;;15.00;3.20;;;;;;;12.11;93.18;93692.91;5054566;28;20394;-65
2023/03/30 00:58:08;;;;;;;14.88;2.70;;;;;;;12.13;92.75;93696.78;5054822;28;20178;-64
2023/03/30 01:00:37;;;;;;;15.48;2.50;;;;;;;12.21;92.02;93691.84;5055500;28;20049;-65
2023/03/30 01:03:13;;;;;;;13.27;2.67;;;;;;;12.21;92.33;93689.09;5055367;28;20047;-65
2023/03/30 01:05:43;;;;;;;13.00;2.55;;;;;;;12.23;91.71;93691.44;5054284;28;20753;-66
2023/03/30 01:08:12;;;;;;;17.20;2.80;;;;;;;12.31;90.90;93693.56;5055066;28;20051;-67
2023/03/30 01:10:39;;;;;;;14.55;2.85;;;;;;;12.30;90.91;93691.25;5040852;28;20047;-65
2023/03/30 01:13:06;;;;;;;15.23;2.80;;;;;;;12.28;91.19;93685.41;5055094;28;20791;-67
2023/03/30 01:15:39;;;;;;;12.47;2.80;;;;;;;12.26;91.62;93690.59;5055096;28;20441;-65
2023/03/30 01:18:23;;;;;;;16.95;3.10;;;;;;;12.32;90.49;93678.63;5054933;28;20033;-67
2023/03/30 01:21:22;;;;;;;18.45;3.22;;;;;;;12.37;90.63;93682.81;5055243;28;20049;-65
2023/03/30 01:24:10;;;;;;;15.32;3.22;;;;;;;12.41;89.51;93686.25;5022647;28;20059;-65
2023/03/30 01:27:11;;;;;;;13.93;3.13;;;;;;;12.42;89.38;93698.03;5053102;28;20041;-69
2023/03/30 01:29:40;;;;;;;13.33;2.53;;;;;;;12.36;90.42;93687.53;5054195;28;22022;-65
2023/03/30 01:32:41;;;;;;;11.80;2.80;;;;;;;12.28;91.72;93683.44;5053364;28;20039;-65
2023/03/30 01:35:35;;;;;;;13.70;2.75;;;;;;;12.29;91.32;93682.22;5054585;28;20044;-67
2023/03/30 01:38:30;;;;;;;13.57;3.00;;;;;;;12.39;90.35;93683.16;5021132;28;20044;-65
2023/03/30 01:41:05;;;;;;;14.13;2.90;;;;;;;12.34;91.13;93676.19;5040893;28;20470;-65
2023/03/30 01:43:46;;;;;;;11.40;2.70;;;;;;;12.33;90.95;93688.41;5034073;28;20619;-64
2023/03/30 01:46:23;;;;;;;12.32;2.42;;;;;;;12.27;92.41;93694.88;5044521;28;20390;-69
2023/03/30 01:49:00;;;;;;;15.32;2.85;;;;;;;12.28;92.50;93702.69;5051712;28;20039;-68
2023/03/30 01:51:34;;;;;;;12.05;2.72;;;;;;;12.24;92.42;93715.78;5061858;28;20536;-67
2023/03/30 01:54:07;;;;;;;14.35;3.00;;;;;;;12.27;92.38;93717.63;5051952;28;20040;-65
2023/03/30 01:56:50;;;;;;;17.53;3.00;;;;;;;12.33;91.80;93726.16;5050716;28;20550;-66
2023/03/30 01:59:25;;;;;;;17.50;3.60;;;;;;;12.41;91.12;93737.75;5051165;28;20041;-65
2023/03/30 02:02:01;;;;;;;15.85;2.90;;;;;;;12.39;91.42;93733.47;5051617;28;20378;-65
2023/03/30 02:04:32;;;;;;;14.88;3.30;;;;;;;12.44;90.86;93736.91;5051253;28;20033;-66
2023/03/30 02:07:07;;;;;;;13.02;3.00;;;;;;;12.48;91.25;93751.34;5051466;28;20101;-64
2023/03/30 02:09:36;;;;;;;15.27;3.00;;;;;;;12.58;90.52;93753.81;5049466;28;21718;-69
2023/03/30 02:12:04;;;;;;;12.52;2.58;;;;;;;12.50;95.43;93751.69;5051066;28;20041;-69
2023/03/30 02:14:34;;;;;;;17.52;3.78;;;;;;;12.50;100.00;93748.94;5050728;28;21666;-65
2023/03/30 02:17:12;;;;;;;13.93;2.78;;;;;;;12.48;100.00;93746.63;5051281;28;20040;-65
2023/03/30 02:19:40;;;;;;;15.45;3.30;;;;;;;12.20;100.00;93753.59;5050509;28;20040;-66
2023/03/30 02:22:07;;;;;;;13.93;3.70;;;;;;;12.09;100.00;93748.38;5050853;28;20053;-65
2023/03/30 02:24:35;;;;;;;16.58;3.33;;;;;;;11.85;100.00;93761.47;5050440;28;20041;-68
2023/03/30 02:27:03;;;;;;;13.68;3.05;;;;;;;11.87;100.00;93761.81;5051258;28;20056;-65
2023/03/30 02:29:31;;;;;;;12.23;2.88;;;;;;;11.82;100.00;93759.56;5050627;28;20041;-66
2023/03/30 02:31:59;;;;;;;14.80;3.05;;;;;;;11.64;100.00;93756.44;5051180;28;20451;-66
2023/03/30 02:34:53;;;;;;;17.00;3.27;;;;;;;11.75;100.00;93754.19;5050746;28;20056;-66
2023/03/30 02:37:26;;;;;;;12.82;3.10;;;;;;;11.73;100.00;93748.34;5049181;28;20033;-65
2023/03/30 02:40:12;;;;;;;13.80;3.00;;;;;;;11.71;100.00;93751.56;5056667;28;20045;-66
2023/03/30 02:43:10;;;;;;;11.75;3.15;;;;;;;11.61;100.00;93738.81;5034284;28;20664;-67
2023/03/30 02:45:41;;;;;;;11.23;3.42;;;;;;;11.57;100.00;93727.91;5035586;28;20849;-65
2023/03/30 02:48:20;;;;;;;14.83;3.37;;;;;;;11.53;100.00;93721.72;5050413;28;20512;-65
2023/03/30 02:50:52;;;;;;;16.00;3.72;;;;;;;11.37;100.00;93729.91;5052531;28;20049;-65
2023/03/30 02:53:41;;;;;;;27.75;12.05;;;;;;;11.25;100.00;93728.59;5050086;28;20033;-66
2023/03/30 02:56:21;;;;;;;17.67;5.07;;;;;;;11.10;100.00;93710.84;5050440;28;20072;-65
2023/03/30 02:58:54;;;;;;;17.50;3.70;;;;;;;10.85;100.00;93705.88;5050386;28;20063;-65
2023/03/30 03:01:27;;;;;;;16.30;3.17;;;;;;;10.81;100.00;93705.16;5050317;28;20040;-65
2023/03/30 03:04:00;;;;;;;21.77;7.80;;;;;;;10.88;100.00;93688.53;5050498;28;20040;-64
2023/03/30 03:06:28;;;;;;;30.27;9.52;;;;;;;10.88;100.00;93678.31;5050216;28;20408;-65
2023/03/30 03:08:55;;;;;;;23.58;6.55;;;;;;;10.84;100.00;93661.16;5050576;28;20049;-64
2023/03/30 03:11:22;;;;;;;18.05;4.82;;;;;;;10.86;100.00;93655.25;5049889;28;20063;-65
2023/03/30 03:13:49;;;;;;;16.00;4.17;;;;;;;10.84;100.00;93646.66;5050433;28;20476;-65
2023/03/30 03:16:17;;;;;;;14.82;4.40;;;;;;;10.70;100.00;93639.50;5049659;28;20067;-65
2023/03/30 03:18:44;;;;;;;13.88;4.25;;;;;;;10.50;100.00;93626.56;5050166;28;20385;-65
2023/03/30 03:21:12;;;;;;;15.40;4.80;;;;;;;10.51;100.00;93616.38;5049936;28;20033;-65
2023/03/30 03:23:40;;;;;;;12.38;4.53;;;;;;;10.56;100.00;93610.38;5048839;28;20041;-65
2023/03/30 03:26:06;;;;;;;11.53;4.10;;;;;;;10.56;100.00;93604.88;5048545;28;20400;-68
2023/03/30 03:28:33;;;;;;;14.13;4.28;;;;;;;10.48;100.00;93606.97;5048669;28;20397;-67
2023/03/30 03:31:01;;;;;;;15.20;4.07;;;;;;;10.45;100.00;93602.34;5049809;28;20482;-65
2023/03/30 03:33:30;;;;;;;17.55;4.20;;;;;;;10.41;100.00;93600.88;5049335;28;20045;-66
2023/03/30 03:35:59;;;;;;;11.50;3.90;;;;;;;10.17;100.00;93609.91;5049618;28;20052;-65
2023/03/30 03:38:26;;;;;;;18.30;4.20;;;;;;;10.05;100.00;93616.00;5054725;28;20389;-65
2023/03/30 03:40:55;;;;;;;15.25;5.28;;;;;;;10.05;100.00;93615.25;5054661;28;20098;-68
2023/03/30 03:43:23;;;;;;;16.55;6.10;;;;;;;10.10;100.00;93617.47;5031527;28;20047;-65
2023/03/30 03:45:50;;;;;;;18.92;5.35;;;;;;;10.10;100.00;93614.75;5049698;28;20041;-65
2023/03/30 03:48:19;;;;;;;18.40;5.10;;;;;;;9.99;100.00;93618.44;5049148;28;20037;-66
2023/03/30 03:50:50;;;;;;;14.37;5.30;;;;;;;9.78;100.00;93616.88;5051323;28;20037;-65
2023/03/30 03:53:17;;;;;;;16.23;4.93;;;;;;;9.78;100.00;93616.09;5049078;28;20039;-65
2023/03/30 03:55:45;;;;;;;15.73;4.03;;;;;;;9.60;100.00;93622.66;5049426;28;20036;-66
2023/03/30 03:58:13;;;;;;;17.55;4.00;;;;;;;9.56;100.00;93626.66;5048948;28;20041;-66
2023/03/30 04:00:40;;;;;;;15.95;4.40;;;;;;;9.43;100.00;93610.00;5049389;28;20037;-66
2023/03/30 04:03:07;;;;;;;16.00;6.20;;;;;;;9.39;100.00;93609.28;5049144;28;20032;-66
2023/03/30 04:05:35;;;;;;;16.25;4.20;;;;;;;9.37;100.00;93617.13;5049405;28;20106;-65
2023/03/30 04:08:02;;;;;;;15.15;3.97;;;;;;;9.33;100.00;93611.72;5042037;28;20075;-66
2023/03/30 04:10:29;;;;;;;14.10;4.05;;;;;;;9.31;100.00;93602.38;5029368;28;20038;-66
2023/03/30 04:12:57;;;;;;;18.65;4.78;;;;;;;9.38;100.00;93592.09;5047207;28;20075;-65
2023/03/30 04:15:24;;;;;;;14.43;3.93;;;;;;;9.46;100.00;93578.28;5048740;28;20037;-66
2023/03/30 04:17:56;;;;;;;15.75;4.50;;;;;;;9.48;100.00;93573.94;5048945;28;20032;-66
2023/03/30 04:20:27;;;;;;;15.23;4.53;;;;;;;9.49;100.00;93567.25;5048785;28;20047;-66
2023/03/30 04:22:54;;;;;;;19.35;4.90;;;;;;;9.47;100.00;93569.63;5049104;28;20375;-69
2023/03/30 04:25:24;;;;;;;16.80;5.78;;;;;;;9.53;100.00;93556.25;5030947;28;20086;-65
2023/03/30 04:27:52;;;;;;;17.03;4.90;;;;;;;9.55;100.00;93559.34;5048150;28;20463;-69
2023/03/30 04:30:21;;;;;;;16.30;4.55;;;;;;;9.57;100.00;93554.97;5033921;28;20041;-66
2023/03/30 04:33:01;;;;;;;16.80;4.50;;;;;;;9.58;100.00;93547.56;5049138;28;20033;-66
2023/03/30 04:35:29;;;;;;;14.38;3.60;;;;;;;9.60;100.00;93550.66;5048462;28;20032;-68
2023/03/30 04:37:57;;;;;;;14.43;3.95;;;;;;;9.62;100.00;93550.22;5048985;28;20076;-68
2023/03/30 04:40:23;;;;;;;16.57;4.27;;;;;;;9.38;100.00;93548.25;5047048;28;20037;-65
2023/03/30 04:42:50;;;;;;;11.65;3.78;;;;;;;9.32;100.00;93540.94;5048960;28;20051;-68
2023/03/30 04:45:17;;;;;;;15.82;4.95;;;;;;;9.11;100.00;93551.03;5048301;28;20049;-65
2023/03/30 04:47:47;;;;;;;16.92;6.00;;;;;;;9.12;100.00;93549.84;5048770;28;20037;-64
2023/03/30 04:50:14;;;;;;;16.65;5.97;;;;;;;9.00;100.00;93542.22;5050578;28;20377;-65
2023/03/30 04:52:41;;;;;;;12.60;5.93;;;;;;;8.91;100.00;93550.94;5056715;28;20037;-65
2023/03/30 04:55:10;;;;;;;16.23;6.90;;;;;;;8.90;100.00;93551.38;5048062;28;20550;-67
2023/03/30 04:57:37;;;;;;;15.60;6.72;;;;;;;8.95;100.00;93538.00;5048527;28;20102;-65
2023/03/30 05:00:08;;;;;;;19.42;5.32;;;;;;;8.97;100.00;93538.38;5048766;28;20433;-66
2023/03/30 05:02:35;;;;;;;18.70;5.20;;;;;;;9.00;100.00;93542.22;5046589;28;20082;-64
2023/03/30 05:05:02;;;;;;;13.67;4.50;;;;;;;9.03;100.00;93540.63;5048470;28;20098;-65
2023/03/30 05:07:29;;;;;;;17.83;4.88;;;;;;;9.02;100.00;93539.84;5048067;28;20040;-65
2023/03/30 05:09:55;;;;;;;13.43;4.50;;;;;;;9.07;100.00;93539.38;5048422;28;20612;-68
2023/03/30 05:12:22;;;;;;;14.95;4.35;;;;;;;8.97;100.00;93543.84;5048266;28;20037;-68
2023/03/30 05:14:49;;;;;;;17.50;5.43;;;;;;;8.92;100.00;93540.78;5048456;28;20126;-64
2023/03/30 05:17:15;;;;;;;16.67;4.83;;;;;;;8.87;100.00;93543.97;5046588;28;20052;-65
2023/03/30 05:19:42;;;;;;;16.13;5.45;;;;;;;8.85;100.00;93546.34;5048217;28;20037;-67
2023/03/30 05:22:09;;;;;;;14.50;5.13;;;;;;;8.86;100.00;93545.94;5050565;28;20045;-65
2023/03/30 05:24:36;;;;;;;13.55;4.97;;;;;;;8.87;100.00;93541.25;5052116;28;20107;-69
2023/03/30 05:27:03;;;;;;;18.00;5.00;;;;;;;8.97;100.00;93540.31;5052314;28;20045;-66
2023/03/30 05:29:30;;;;;;;14.87;4.73;;;;;;;9.00;100.00;93534.03;5050517;28;20134;-65
2023/03/30 05:31:57;;;;;;;12.88;4.57;;;;;;;9.10;100.00;93526.84;5052115;28;20040;-65
2023/03/30 05:34:24;;;;;;;16.83;4.80;;;;;;;9.13;100.00;93526.00;5051359;28;20045;-66
2023/03/30 05:36:50;;;;;;;18.55;4.68;;;;;;;9.16;100.00;93539.63;5052030;28;20041;-66
2023/03/30 05:39:17;;;;;;;16.20;4.70;;;;;;;9.25;100.00;93530.88;5061720;28;20098;-65
2023/03/30 05:41:45;;;;;;;19.60;4.80;;;;;;;9.24;100.00;93531.31;5051862;28;20043;-65
2023/03/30 05:44:11;;;;;;;13.77;4.50;;;;;;;9.28;100.00;93529.28;5051098;28;20109;-65
2023/03/30 05:46:38;;;;;;;17.15;5.25;;;;;;;9.35;100.00;93540.09;5051495;28;20037;-67
2023/03/30 05:49:05;;;;;;;15.68;4.70;;;;;;;9.49;100.00;93552.78;5051466;28;20041;-66
2023/03/30 05:51:32;;;;;;;17.88;5.68;;;;;;;9.53;100.00;93545.28;5044641;28;20078;-66
2023/03/30 05:53:58;;;;;;;17.00;5.10;;;;;;;9.58;100.00;93558.50;5031896;28;20053;-66
2023/03/30 05:56:26;;;;;;;14.43;5.30;;;;;;;9.68;100.00;93565.78;5031598;28;20393;-66
2023/03/30 05:58:52;;;;;;;14.27;4.93;;;;;;;9.75;100.00;93573.09;5031551;28;20045;-66
2023/03/30 06:01:20;;;;;;;26.63;8.73;;;;;;;9.71;100.00;93572.38;5018659;28;20426;-67
2023/03/30 06:03:46;;;;;;;22.50;8.02;;;;;;;9.87;100.00;93579.91;5012084;28;20038;-67
2023/03/30 06:06:14;;;;;;;22.67;8.37;;;;;;;9.89;100.00;93580.28;5029687;28;20393;-67
2023/03/30 06:08:41;;;;;;;20.10;8.02;;;;;;;9.29;100.00;93580.88;5031658;28;20047;-67
2023/03/30 06:11:07;;;;;;;21.40;7.55;;;;;;;9.48;100.00;93578.66;5013421;28;20068;-66
2023/03/30 06:13:34;;;;;;;21.25;6.65;;;;;;;9.64;100.00;93589.72;5017591;28;20041;-66
2023/03/30 06:16:01;;;;;;;21.15;7.43;;;;;;;9.57;100.00;93595.31;5011971;28;20042;-67
2023/03/30 06:18:29;;;;;;;22.17;7.23;;;;;;;9.65;100.00;93588.50;5006929;28;20556;-67
2023/03/30 06:20:56;;;;;;;21.67;7.50;;;;;;;9.50;100.00;93562.56;5014281;28;20042;-67
2023/03/30 06:23:24;;;;;;;27.10;9.93;;;;;;;9.77;100.00;93562.47;5026817;28;20041;-69
2023/03/30 06:25:51;;;;;;;24.88;10.27;;;;;;;9.94;100.00;93549.63;5031246;28;20038;-67
2023/03/30 06:28:19;;;;;;;19.73;8.05;;;;;;;10.20;100.00;93545.22;5030562;28;20054;-68
2023/03/30 06:30:48;;;;;;;20.87;7.30;;;;;;;10.36;100.00;93536.31;5031226;28;20501;-68
2023/03/30 06:33:16;;;;;;;25.13;8.50;;;;;;;10.29;100.00;93534.47;5030159;28;20047;-67
2023/03/30 06:35:47;;;;;;;19.85;6.75;;;;;;;10.30;100.00;93546.22;5031119;28;20049;-67
2023/03/30 06:38:15;;;;;;;20.25;4.97;;;;;;;10.44;100.00;93559.66;5030500;28;20037;-69
2023/03/30 06:40:41;;;;;;;12.20;3.90;;;;;;;10.38;100.00;93556.66;5030795;28;20045;-69
2023/03/30 06:43:15;;;;;;;16.37;4.33;;;;;;;10.31;100.00;93559.53;5030334;28;20492;-68
2023/03/30 06:45:48;;;;;;;14.38;5.30;;;;;;;10.41;100.00;93562.47;5030931;28;20048;-68
2023/03/30 06:48:15;;;;;;;16.35;5.80;;;;;;;10.36;100.00;93558.25;5030268;28;20060;-68
2023/03/30 06:50:46;;;;;;;20.05;5.40;;;;;;;10.65;100.00;93555.69;5030994;28;20044;-67
2023/03/30 06:53:14;;;;;;;23.10;7.60;;;;;;;10.85;100.00;93546.66;5030217;28;20393;-67
2023/03/30 06:55:41;;;;;;;28.47;9.70;;;;;;;10.87;100.00;93550.50;5030681;28;20056;-68
2023/03/30 06:58:08;;;;;;;30.90;9.93;;;;;;;11.00;100.00;93559.63;5030092;28;20043;-65
2023/03/30 07:00:35;;;;;;;20.42;6.78;;;;;;;10.87;100.00;93558.75;5026538;28;20466;-67
2023/03/30 07:03:02;;;;;;;15.40;6.00;;;;;;;10.49;100.00;93572.13;5011171;28;20474;-68
2023/03/30 07:05:30;;;;;;;17.48;6.32;;;;;;;10.65;100.00;93568.66;5022637;28;20394;-69
2023/03/30 07:07:57;;;;;;;18.13;6.27;;;;;;;10.55;100.00;93578.66;5029352;28;20041;-67
2023/03/30 07:10:24;;;;;;;20.90;6.60;;;;;;;10.52;100.00;93568.50;5030091;28;20158;-68
2023/03/30 07:12:51;;;;;;;20.05;7.50;;;;;;;10.73;100.00;93590.03;5030480;28;20453;-68
2023/03/30 07:15:18;;;;;;;19.80;7.93;;;;;;;11.27;100.00;93580.59;5029979;28;20057;-69
2023/03/30 07:17:45;;;;;;;19.73;7.88;;;;;;;12.02;100.00;93582.75;5028687;28;20044;-68
2023/03/30 07:20:14;;;;;;;20.43;6.23;;;;;;;12.10;100.00;93575.84;5029887;28;20049;-68
2023/03/30 07:22:41;;;;;;;19.80;6.57;;;;;;;13.63;100.00;93569.78;5030319;28;20428;-68
2023/03/30 07:25:09;;;;;;;20.65;6.57;;;;;;;15.60;100.00;93567.44;5017134;28;20051;-68
2023/03/30 07:27:36;;;;;;;15.30;5.30;;;;;;;16.21;100.00;93558.66;5030399;28;20056;-68
2023/03/30 07:30:05;;;;;;;14.82;4.43;;;;;;;16.31;100.00;93562.97;5029983;28;20072;-68
2023/03/30 07:32:49;;;;;;;15.90;4.10;;;;;;;16.81;100.00;93558.03;5029451;28;21690;-68
2023/03/30 07:35:16;;;;;;;15.07;4.20;;;;;;;15.88;100.00;93564.78;5029497;28;20098;-68
2023/03/30 07:37:43;;;;;;;17.33;4.80;;;;;;;16.05;100.00;93568.78;5029827;28;20068;-68
2023/03/30 07:40:10;;;;;;;18.88;4.88;;;;;;;15.88;100.00;93568.31;5029505;28;20045;-68
2023/03/30 07:42:37;;;;;;;16.08;5.10;;;;;;;15.58;100.00;93561.59;5029789;28;20040;-66
2023/03/30 07:45:04;;;;;;;16.43;5.60;;;;;;;15.24;100.00;93552.25;5029113;28;20152;-67
2023/03/30 07:47:31;;;;;;;15.68;5.70;;;;;;;15.38;100.00;93564.75;5029476;28;20071;-67
2023/03/30 07:49:58;;;;;;;16.58;5.22;;;;;;;15.62;100.00;93561.47;5029848;28;20341;-67
2023/03/30 07:52:25;;;;;;;16.77;5.78;;;;;;;14.02;100.00;93567.69;5029233;28;20045;-67
2023/03/30 07:54:53;;;;;;;13.85;5.00;;;;;;;14.11;100.00;93569.78;5029335;28;20385;-67
2023/03/30 07:57:21;;;;;;;15.93;4.90;;;;;;;13.60;100.00;93565.16;5029015;28;20041;-67
2023/03/30 07:59:48;;;;;;;16.65;4.60;;;;;;;13.98;100.00;93567.06;5029474;28;20041;-67
2023/03/30 08:02:15;;;;;;;23.95;9.65;;;;;;;14.04;100.00;93558.97;5027749;28;20107;-66
2023/03/30 08:04:43;;;;;;;36.53;12.15;;;;;;;13.91;100.00;93564.56;5029421;28;20041;-66
2023/03/30 08:07:11;;;;;;;19.15;5.30;;;;;;;14.09;100.00;93558.44;5028986;28;20038;-66
2023/03/30 08:09:37;;;;;;;15.30;3.47;;;;;;;14.07;100.00;93564.38;5029452;28;20041;-67
2023/03/30 08:12:06;;;;;;;15.00;4.53;;;;;;;14.46;100.00;93561.47;5028141;28;20103;-66
2023/03/30 08:14:32;;;;;;;13.48;3.70;;;;;;;14.61;100.00;93567.25;5015436;28;20148;-68
2023/03/30 08:16:59;;;;;;;19.10;3.70;;;;;;;15.29;98.91;93570.25;5029286;28;20044;-67
2023/03/30 08:19:27;;;;;;;14.85;3.80;;;;;;;15.28;93.31;93563.94;5028414;28;20054;-67
2023/03/30 08:21:55;;;;;;;15.37;4.20;;;;;;;15.23;93.91;93570.09;5029227;28;20500;-67
2023/03/30 08:24:22;;;;;;;17.00;3.88;;;;;;;14.80;93.10;93559.88;5028587;28;20041;-67
2023/03/30 08:26:49;;;;;;;17.13;4.70;;;;;;;14.35;96.41;93551.59;5029243;28;20089;-67
2023/03/30 08:29:17;;;;;;;19.08;4.05;;;;;;;14.74;100.00;93560.44;5044037;28;20658;-68
2023/03/30 08:31:44;;;;;;;19.27;4.32;;;;;;;14.21;100.00;93560.38;5029331;28;20037;-67
2023/03/30 08:34:11;;;;;;;18.10;4.27;;;;;;;14.38;100.00;93556.19;5028792;28;20037;-68
2023/03/30 08:36:38;;;;;;;19.63;3.95;;;;;;;14.06;100.00;93562.84;5029227;28;20096;-67
2023/03/30 08:39:05;;;;;;;15.40;3.70;;;;;;;14.12;100.00;93554.75;5028953;28;20038;-66
2023/03/30 08:41:53;;;;;;;16.85;4.07;;;;;;;13.75;100.00;93559.97;5028473;28;20436;-67
2023/03/30 08:44:41;;;;;;;19.77;4.13;;;;;;;13.94;100.00;93547.88;5027188;28;20468;-67
2023/03/30 08:47:14;;;;;;;15.03;3.93;;;;;;;15.22;100.00;93567.78;5028708;28;20042;-66
2023/03/30 08:49:47;;;;;;;16.27;4.18;;;;;;;15.29;100.00;93576.56;5028838;28;20524;-67
2023/03/30 08:52:22;;;;;;;18.30;3.92;;;;;;;14.59;100.00;93592.59;5018430;28;20053;-67
2023/03/30 08:54:50;;;;;;;17.90;3.80;;;;;;;13.89;100.00;93600.09;5010928;28;20044;-67
2023/03/30 08:57:30;;;;;;;16.60;4.03;;;;;;;13.69;100.00;93612.13;5027904;28;20049;-67
2023/03/30 09:00:20;;;;;;;16.33;4.20;;;;;;;13.26;100.00;93612.66;5032915;28;20063;-68
2023/03/30 09:02:52;;;;;;;12.82;4.20;;;;;;;13.21;100.00;93607.72;5032023;28;20286;-67
2023/03/30 09:05:37;;;;;;;15.27;4.28;;;;;;;13.16;100.00;93614.56;5031237;28;20034;-68
2023/03/30 09:08:23;;;;;;;18.20;4.70;;;;;;;12.79;100.00;93623.06;5022173;28;20045;-67
2023/03/30 09:10:59;;;;;;;17.98;4.50;;;;;;;12.83;100.00;93622.97;5031756;28;21750;-67
2023/03/30 09:13:38;;;;;;;19.53;5.17;;;;;;;12.46;100.00;93633.44;5032433;28;20049;-67
2023/03/30 09:16:19;;;;;;;18.40;5.50;;;;;;;12.26;100.00;93643.81;5032578;28;20049;-67
2023/03/30 09:18:53;;;;;;;19.15;5.07;;;;;;;12.11;100.00;93671.69;5031469;28;20599;-69
2023/03/30 09:21:23;;;;;;;20.02;6.57;;;;;;;11.89;100.00;93667.91;5032283;28;20429;-67
2023/03/30 09:23:52;;;;;;;20.40;7.55;;;;;;;11.58;100.00;93681.94;5032275;28;20377;-67
2023/03/30 09:26:23;;;;;;;28.13;14.30;;;;;;;11.36;100.00;93676.91;5032166;28;20038;-67
2023/03/30 09:29:08;;;;;;;22.63;7.65;;;;;;;11.01;100.00;93703.19;5032630;28;20049;-67
2023/03/30 09:32:02;;;;;;;19.05;8.63;;;;;;;11.09;100.00;93731.28;5031351;28;21537;-68
2023/03/30 09:34:45;;;;;;;15.27;6.60;;;;;;;10.96;100.00;93728.38;4995254;28;20037;-67
2023/03/30 09:37:17;;;;;;;16.33;6.13;;;;;;;10.64;100.00;93723.50;5031883;28;20389;-70
2023/03/30 09:39:45;;;;;;;19.90;5.70;;;;;;;10.69;100.00;93721.06;5032170;28;20038;-67
2023/03/30 09:42:36;;;;;;;19.25;7.00;;;;;;;10.89;100.00;93745.00;5031764;28;20059;-67
2023/03/30 09:45:16;;;;;;;16.67;6.55;;;;;;;10.99;100.00;93747.53;5019985;28;20063;-68
2023/03/30 09:47:42;;;;;;;16.77;6.35;;;;;;;11.05;100.00;93738.81;5031056;28;21750;-67
2023/03/30 09:50:16;;;;;;;17.98;5.80;;;;;;;10.52;100.00;93747.66;5031399;28;20417;-68
2023/03/30 09:52:55;;;;;;;17.23;5.57;;;;;;;10.78;100.00;93746.00;5024887;28;20038;-67
2023/03/30 09:55:28;;;;;;;16.40;5.80;;;;;;;11.01;100.00;93752.63;5012464;28;20492;-66
2023/03/30 09:58:16;;;;;;;13.43;5.68;;;;;;;11.32;100.00;93749.63;5028237;28;20053;-67
2023/03/30 10:00:44;;;;;;;15.20;5.43;;;;;;;11.08;100.00;93746.97;5030915;28;20181;-67
2023/03/30 10:03:20;;;;;;;15.68;5.70;;;;;;;10.77;100.00;93729.94;5031256;28;20052;-69
2023/03/30 10:06:01;;;;;;;13.37;5.40;;;;;;;10.63;100.00;93732.97;5031866;28;20394;-68
2023/03/30 10:08:29;;;;;;;13.52;5.20;;;;;;;10.63;100.00;93738.44;5030580;28;20102;-67
2023/03/30 10:10:57;;;;;;;13.13;5.13;;;;;;;10.67;100.00;93736.41;5031612;28;20037;-67
2023/03/30 10:13:36;;;;;;;10.50;3.92;;;;;;;10.76;100.00;93725.63;5031127;28;20049;-68
2023/03/30 10:16:06;;;;;;;12.60;4.07;;;;;;;10.96;100.00;93734.66;5031568;28;20403;-67
2023/03/30 10:18:39;;;;;;;11.50;4.10;;;;;;;11.15;100.00;93730.34;5029071;28;20490;-66
2023/03/30 10:21:17;;;;;;;12.43;4.05;;;;;;;11.42;100.00;93726.66;5031407;28;20046;-65
2023/03/30 10:23:46;;;;;;;13.10;4.20;;;;;;;11.83;100.00;93716.31;5031387;28;20542;-68
2023/03/30 10:26:18;;;;;;;10.50;4.30;;;;;;;11.64;100.00;93710.47;5029600;28;20540;-67
2023/03/30 10:29:03;;;;;;;12.10;4.65;;;;;;;11.55;100.00;93702.03;5031290;28;20063;-67
2023/03/30 10:31:34;;;;;;;11.93;4.50;;;;;;;11.78;100.00;93710.13;5030983;28;20045;-67
2023/03/30 10:34:03;;;;;;;21.20;7.60;;;;;;;11.89;100.00;93717.38;5031358;28;20371;-67
2023/03/30 10:36:38;;;;;;;15.07;5.55;;;;;;;11.61;100.00;93730.56;5030470;28;20037;-66
2023/03/30 10:39:33;;;;;;;13.23;5.80;;;;;;;11.52;100.00;93722.13;5031178;28;20095;-68
2023/03/30 10:42:03;;;;;;;11.13;4.90;;;;;;;11.48;100.00;93724.19;5018835;28;20667;-68
2023/03/30 10:44:35;;;;;;;9.07;4.20;;;;;;;11.26;100.00;93735.63;5030450;28;20034;-68
2023/03/30 10:47:13;;;;;;;10.30;4.10;;;;;;;11.24;100.00;93738.03;5030998;28;20528;-68
2023/03/30 10:50:08;;;;;;;10.98;4.10;;;;;;;10.99;100.00;93741.28;5030178;28;20652;-68
2023/03/30 10:52:56;;;;;;;10.23;4.15;;;;;;;11.08;100.00;93740.72;5021007;28;20673;-68
2023/03/30 10:55:34;;;;;;;11.05;4.40;;;;;;;11.29;100.00;93734.78;5011292;28;20048;-68
2023/03/30 10:58:32;;;;;;;10.97;4.50;;;;;;;11.44;100.00;93732.50;5027696;28;20030;-68
2023/03/30 11:01:10;;;;;;;9.68;4.28;;;;;;;11.74;100.00;93725.19;5030095;28;20654;-68
2023/03/30 11:03:43;;;;;;;8.63;4.15;;;;;;;12.12;100.00;93727.47;5030089;28;20863;-69
2023/03/30 11:06:20;;;;;;;9.05;4.30;;;;;;;12.29;100.00;93714.47;5030299;28;20057;-68
2023/03/30 11:08:51;;;;;;;8.63;4.22;;;;;;;12.38;100.00;93720.16;5030514;28;20071;-69
2023/03/30 11:11:21;;;;;;;11.03;4.20;;;;;;;12.62;100.00;93717.19;5030235;28;20567;-68
2023/03/30 11:14:01;;;;;;;8.95;4.50;;;;;;;12.55;100.00;93709.88;5030394;28;20075;-68
2023/03/30 11:16:52;;;;;;;12.27;5.00;;;;;;;12.54;100.00;93719.34;5030085;28;20043;-68
2023/03/30 11:19:38;;;;;;;8.93;4.43;;;;;;;12.59;100.00;93718.81;5016587;28;20041;-69
2023/03/30 11:22:16;;;;;;;11.02;4.75;;;;;;;12.26;100.00;93709.84;5029917;28;20037;-68
2023/03/30 11:24:47;;;;;;;10.50;4.80;;;;;;;11.98;100.00;93712.06;5020344;28;20099;-68
2023/03/30 11:27:33;;;;;;;11.18;4.68;;;;;;;11.74;100.00;93720.44;5028546;28;20103;-68
2023/03/30 11:30:18;;;;;;;10.23;4.72;;;;;;;11.89;100.00;93722.88;5030496;28;20042;-68
2023/03/30 11:33:09;;;;;;;11.00;4.80;;;;;;;12.41;100.00;93724.00;5029301;28;20128;-68
2023/03/30 11:35:50;;;;;;;13.77;4.70;;;;;;;12.17;100.00;93735.19;5049508;28;21747;-68
2023/03/30 11:38:37;;;;;;;12.67;5.10;;;;;;;11.74;100.00;93749.91;5036707;28;20367;-68
2023/03/30 11:41:16;;;;;;;9.90;5.57;;;;;;;11.49;100.00;93754.00;5049607;28;20043;-69
2023/03/30 11:43:43;;;;;;;9.80;5.07;;;;;;;11.64;100.00;93740.69;5049254;28;20931;-68